UAL2849 KEWR-TDPD
Flight info
| Callsign | UAL2849 |
|---|---|
| Flight time | N/A |
| Altitude | 37000 |
| Route | DCT ELVAE DCT NECCK DCT DIXIE Y482 SQUAD/M080F370 DCT DARUX L459 KEEKA/N0464F370 L459 ODUCA DCT ELOPO DCT PPR DCT |
| Aircraft | B737/M-SDE2E3FGHIRWXY/LB1 |
Departure
| Time | 2026-04-20 19:25 |
|---|---|
| Airport | Newark Liberty International Airport (KEWR) |
Arrival
| Time | N/A |
|---|---|
| Airport | Douglas-Charles Airport (TDPD) |
| Time | Latitude | Longitude | Altitude | Speed | Heading |
|---|---|---|---|---|---|
| 2026-04-20 18:57 | 40.68446 | -74.18501 | 21 ft | 0 kts | 185° |
| 2026-04-20 19:13 | 40.68461 | -74.18499 | 24 ft | 4 kts | 185° |
| 2026-04-20 19:13 | 40.68483 | -74.18496 | 21 ft | 4 kts | 184° |
| 2026-04-20 19:13 | 40.68508 | -74.18498 | 22 ft | 4 kts | 148° |
| 2026-04-20 19:13 | 40.68522 | -74.18520 | 21 ft | 4 kts | 113° |
| 2026-04-20 19:14 | 40.68527 | -74.18538 | 21 ft | 0 kts | 113° |
| 2026-04-20 19:17 | 40.68527 | -74.18537 | 21 ft | 1 kts | 113° |
| 2026-04-20 19:17 | 40.68519 | -74.18514 | 22 ft | 6 kts | 113° |
| 2026-04-20 19:17 | 40.68512 | -74.18451 | 21 ft | 7 kts | 94° |
| 2026-04-20 19:18 | 40.68507 | -74.18385 | 21 ft | 8 kts | 96° |
| 2026-04-20 19:18 | 40.68502 | -74.18304 | 21 ft | 10 kts | 94° |
| 2026-04-20 19:18 | 40.68496 | -74.18218 | 21 ft | 9 kts | 100° |
| 2026-04-20 19:18 | 40.68465 | -74.18144 | 21 ft | 10 kts | 127° |
| 2026-04-20 19:19 | 40.68423 | -74.18051 | 21 ft | 14 kts | 116° |
| 2026-04-20 19:19 | 40.68380 | -74.17931 | 21 ft | 14 kts | 115° |
| 2026-04-20 19:19 | 40.68337 | -74.17813 | 21 ft | 14 kts | 116° |
| 2026-04-20 19:19 | 40.68293 | -74.17704 | 22 ft | 13 kts | 131° |
| 2026-04-20 19:20 | 40.68210 | -74.17680 | 21 ft | 13 kts | 199° |
| 2026-04-20 19:20 | 40.68131 | -74.17729 | 21 ft | 13 kts | 205° |
| 2026-04-20 19:20 | 40.68053 | -74.17778 | 21 ft | 12 kts | 205° |
| 2026-04-20 19:20 | 40.67978 | -74.17825 | 22 ft | 12 kts | 205° |
| 2026-04-20 19:21 | 40.67904 | -74.17873 | 21 ft | 12 kts | 206° |
| 2026-04-20 19:21 | 40.67824 | -74.17924 | 21 ft | 14 kts | 206° |
| 2026-04-20 19:21 | 40.67737 | -74.17980 | 21 ft | 10 kts | 205° |
| 2026-04-20 19:21 | 40.67700 | -74.17973 | 22 ft | 0 kts | 125° |
| 2026-04-20 19:22 | 40.67698 | -74.17969 | 24 ft | 4 kts | 120° |
| 2026-04-20 19:22 | 40.67675 | -74.17908 | 22 ft | 0 kts | 117° |
| 2026-04-20 19:22 | 40.67673 | -74.17905 | 21 ft | 1 kts | 117° |
| 2026-04-20 19:22 | 40.67666 | -74.17877 | 23 ft | 6 kts | 92° |
| 2026-04-20 19:23 | 40.67689 | -74.17849 | 20 ft | 0 kts | 25° |
| 2026-04-20 19:24 | 40.67690 | -74.17849 | 23 ft | 3 kts | 25° |
| 2026-04-20 19:24 | 40.67860 | -74.17743 | 20 ft | 65 kts | 26° |
| 2026-04-20 19:24 | 40.68523 | -74.17323 | 25 ft | 142 kts | 25° |
| 2026-04-20 19:25 | 40.69593 | -74.16679 | 280 ft | 184 kts | 24° |
| 2026-04-20 19:25 | 40.70787 | -74.15778 | 849 ft | 214 kts | 30° |
| 2026-04-20 19:25 | 40.72065 | -74.14771 | 1897 ft | 206 kts | 31° |
| 2026-04-20 19:25 | 40.73091 | -74.13510 | 3042 ft | 202 kts | 43° |
| 2026-04-20 19:26 | 40.74087 | -74.12114 | 3641 ft | 221 kts | 43° |
| 2026-04-20 19:26 | 40.75258 | -74.10661 | 4172 ft | 235 kts | 28° |
| 2026-04-20 19:26 | 40.76804 | -74.10031 | 4893 ft | 240 kts | 358° |
| 2026-04-20 19:26 | 40.78440 | -74.10571 | 5607 ft | 249 kts | 327° |
| 2026-04-20 19:27 | 40.79662 | -74.12169 | 6530 ft | 251 kts | 299° |
| 2026-04-20 19:27 | 40.80195 | -74.14370 | 7541 ft | 253 kts | 279° |
| 2026-04-20 19:27 | 40.80484 | -74.16716 | 8427 ft | 258 kts | 279° |
| 2026-04-20 19:27 | 40.80756 | -74.19054 | 9352 ft | 263 kts | 277° |
| 2026-04-20 19:28 | 40.80812 | -74.21487 | 10322 ft | 266 kts | 256° |
| 2026-04-20 19:28 | 40.79955 | -74.23713 | 10850 ft | 287 kts | 231° |
| 2026-04-20 19:28 | 40.78312 | -74.25442 | 11083 ft | 319 kts | 213° |
| 2026-04-20 19:28 | 40.76312 | -74.26921 | 11460 ft | 337 kts | 212° |
| 2026-04-20 19:29 | 40.74238 | -74.28437 | 12196 ft | 343 kts | 210° |
| 2026-04-20 19:29 | 40.72101 | -74.29848 | 13085 ft | 345 kts | 209° |
| 2026-04-20 19:29 | 40.69887 | -74.31137 | 14009 ft | 352 kts | 200° |
| 2026-04-20 19:29 | 40.67420 | -74.31517 | 14863 ft | 366 kts | 181° |
| 2026-04-20 19:30 | 40.64879 | -74.31048 | 15710 ft | 372 kts | 174° |
| 2026-04-20 19:30 | 40.62311 | -74.30376 | 16430 ft | 380 kts | 173° |
| 2026-04-20 19:30 | 40.59714 | -74.29557 | 17185 ft | 387 kts | 170° |
| 2026-04-20 19:30 | 40.57111 | -74.28585 | 17967 ft | 391 kts | 169° |
| 2026-04-20 19:31 | 40.54518 | -74.27596 | 18691 ft | 396 kts | 169° |
| 2026-04-20 19:31 | 40.51893 | -74.26408 | 19393 ft | 403 kts | 166° |
| 2026-04-20 19:31 | 40.49262 | -74.25077 | 20071 ft | 408 kts | 165° |
| 2026-04-20 19:31 | 40.46610 | -74.23704 | 20764 ft | 411 kts | 165° |
| 2026-04-20 19:32 | 40.43941 | -74.22338 | 21405 ft | 414 kts | 166° |
| 2026-04-20 19:32 | 40.41237 | -74.20974 | 22019 ft | 418 kts | 167° |
| 2026-04-20 19:32 | 40.38507 | -74.19613 | 22671 ft | 420 kts | 167° |
| 2026-04-20 19:32 | 40.35761 | -74.18256 | 23263 ft | 423 kts | 168° |
| 2026-04-20 19:33 | 40.32985 | -74.16950 | 23774 ft | 423 kts | 173° |
| 2026-04-20 19:33 | 40.30131 | -74.16144 | 24297 ft | 416 kts | 181° |
| 2026-04-20 19:33 | 40.27278 | -74.15946 | 24830 ft | 409 kts | 190° |
| 2026-04-20 19:33 | 40.24424 | -74.16059 | 25330 ft | 412 kts | 191° |
| 2026-04-20 19:34 | 40.21551 | -74.16172 | 25758 ft | 416 kts | 190° |
| 2026-04-20 19:34 | 40.18648 | -74.16238 | 26203 ft | 419 kts | 189° |
| 2026-04-20 19:34 | 40.15697 | -74.15969 | 26599 ft | 439 kts | 176° |
| 2026-04-20 19:34 | 40.12778 | -74.14472 | 26991 ft | 465 kts | 158° |
| 2026-04-20 19:35 | 40.10186 | -74.11795 | 27426 ft | 489 kts | 141° |
| 2026-04-20 19:35 | 40.08198 | -74.08083 | 27839 ft | 511 kts | 121° |
| 2026-04-20 19:35 | 40.07004 | -74.03649 | 28197 ft | 523 kts | 110° |
| 2026-04-20 19:35 | 40.06076 | -73.99030 | 28510 ft | 529 kts | 108° |
| 2026-04-20 19:36 | 40.05220 | -73.94341 | 28822 ft | 532 kts | 108° |
| 2026-04-20 19:36 | 40.04370 | -73.89633 | 29157 ft | 534 kts | 108° |
| 2026-04-20 19:36 | 40.03492 | -73.84923 | 29601 ft | 533 kts | 108° |
| 2026-04-20 19:36 | 40.02585 | -73.80245 | 30093 ft | 531 kts | 109° |
| 2026-04-20 19:37 | 40.01656 | -73.75588 | 30592 ft | 529 kts | 109° |
| 2026-04-20 19:37 | 40.00713 | -73.70970 | 31153 ft | 525 kts | 109° |
| 2026-04-20 19:37 | 39.99768 | -73.66388 | 31757 ft | 521 kts | 109° |
| 2026-04-20 19:37 | 39.98826 | -73.61845 | 32291 ft | 517 kts | 109° |
| 2026-04-20 19:38 | 39.97891 | -73.57325 | 32703 ft | 516 kts | 109° |
| 2026-04-20 19:38 | 39.96959 | -73.52816 | 33201 ft | 514 kts | 109° |
| 2026-04-20 19:38 | 39.96030 | -73.48341 | 33709 ft | 510 kts | 109° |
| 2026-04-20 19:38 | 39.95108 | -73.43890 | 34233 ft | 506 kts | 109° |
| 2026-04-20 19:39 | 39.94190 | -73.39477 | 34715 ft | 504 kts | 109° |
| 2026-04-20 19:39 | 39.93271 | -73.35066 | 35062 ft | 504 kts | 109° |
| 2026-04-20 19:39 | 39.92349 | -73.30659 | 35316 ft | 504 kts | 110° |
| 2026-04-20 19:39 | 39.91420 | -73.26237 | 35572 ft | 506 kts | 110° |
| 2026-04-20 19:40 | 39.90485 | -73.21824 | 35997 ft | 504 kts | 110° |
| 2026-04-20 19:40 | 39.89562 | -73.17427 | 36326 ft | 503 kts | 110° |
| 2026-04-20 19:40 | 39.88632 | -73.13022 | 36522 ft | 506 kts | 110° |
| 2026-04-20 19:40 | 39.87709 | -73.08616 | 36883 ft | 502 kts | 110° |
| 2026-04-20 19:41 | 39.86792 | -73.04248 | 37221 ft | 501 kts | 111° |
| 2026-04-20 19:41 | 39.84930 | -72.95463 | 37193 ft | 504 kts | 111° |
| 2026-04-20 19:42 | 39.83072 | -72.86713 | 37188 ft | 499 kts | 111° |
| 2026-04-20 19:42 | 39.81080 | -72.78118 | 37202 ft | 494 kts | 115° |
| 2026-04-20 19:43 | 39.78776 | -72.69734 | 37201 ft | 492 kts | 116° |
| 2026-04-20 19:43 | 39.76468 | -72.61372 | 37207 ft | 492 kts | 116° |
| 2026-04-20 19:44 | 39.74194 | -72.52981 | 37203 ft | 492 kts | 116° |
| 2026-04-20 19:44 | 39.71933 | -72.44597 | 37203 ft | 492 kts | 116° |
| 2026-04-20 19:45 | 39.69637 | -72.36240 | 37200 ft | 491 kts | 117° |
| 2026-04-20 19:45 | 39.67302 | -72.27898 | 37199 ft | 492 kts | 117° |
| 2026-04-20 19:46 | 39.65193 | -72.21083 | 37194 ft | 485 kts | 126° |
| 2026-04-20 19:46 | 39.61358 | -72.14104 | 37206 ft | 469 kts | 141° |
| 2026-04-20 19:47 | 39.56870 | -72.07958 | 37211 ft | 470 kts | 142° |
| 2026-04-20 19:47 | 39.52368 | -72.01801 | 37204 ft | 472 kts | 142° |
| 2026-04-20 19:48 | 39.47878 | -71.95587 | 37206 ft | 472 kts | 141° |
| 2026-04-20 19:48 | 39.43451 | -71.89406 | 37197 ft | 471 kts | 141° |
| 2026-04-20 19:49 | 39.38986 | -71.83209 | 37195 ft | 471 kts | 141° |
| 2026-04-20 19:49 | 39.34528 | -71.77024 | 37180 ft | 470 kts | 141° |
| 2026-04-20 19:50 | 39.30071 | -71.70867 | 37200 ft | 468 kts | 142° |
| 2026-04-20 19:50 | 39.25632 | -71.64744 | 37183 ft | 466 kts | 142° |
| 2026-04-20 19:51 | 39.21208 | -71.58670 | 37199 ft | 463 kts | 143° |
| 2026-04-20 19:51 | 39.16253 | -71.53662 | 37205 ft | 447 kts | 156° |
| 2026-04-20 19:52 | 39.10998 | -71.49364 | 37197 ft | 448 kts | 156° |
| 2026-04-20 19:52 | 39.05738 | -71.45061 | 37194 ft | 448 kts | 156° |
| 2026-04-20 19:53 | 39.00489 | -71.40716 | 37199 ft | 449 kts | 156° |
| 2026-04-20 19:53 | 38.95245 | -71.36357 | 37200 ft | 449 kts | 156° |
| 2026-04-20 19:54 | 38.89995 | -71.31999 | 37208 ft | 449 kts | 155° |
| 2026-04-20 19:54 | 38.84756 | -71.27650 | 37205 ft | 448 kts | 156° |
| 2026-04-20 19:55 | 38.79504 | -71.23309 | 37202 ft | 449 kts | 156° |
| 2026-04-20 19:55 | 38.74250 | -71.18975 | 37197 ft | 450 kts | 156° |
| 2026-04-20 19:56 | 38.68995 | -71.14640 | 37203 ft | 448 kts | 156° |
| 2026-04-20 19:56 | 38.63753 | -71.10326 | 37199 ft | 448 kts | 156° |
| 2026-04-20 19:57 | 38.58513 | -71.06022 | 37193 ft | 447 kts | 156° |
| 2026-04-20 19:57 | 38.53271 | -71.01729 | 37208 ft | 447 kts | 156° |
| 2026-04-20 19:58 | 38.48038 | -70.97438 | 37195 ft | 447 kts | 156° |
| 2026-04-20 19:58 | 38.42854 | -70.93201 | 37198 ft | 446 kts | 156° |
| 2026-04-20 19:59 | 38.37631 | -70.88941 | 37204 ft | 445 kts | 156° |
| 2026-04-20 19:59 | 38.32405 | -70.84689 | 37199 ft | 446 kts | 156° |
| 2026-04-20 20:00 | 38.27189 | -70.80447 | 37189 ft | 445 kts | 156° |
| 2026-04-20 20:00 | 38.21988 | -70.76226 | 37191 ft | 443 kts | 156° |
| 2026-04-20 20:01 | 38.16801 | -70.72024 | 37194 ft | 441 kts | 156° |
| 2026-04-20 20:01 | 38.11620 | -70.67834 | 37192 ft | 441 kts | 156° |
| 2026-04-20 20:02 | 38.06439 | -70.63655 | 37199 ft | 441 kts | 156° |
| 2026-04-20 20:02 | 38.01264 | -70.59482 | 37195 ft | 441 kts | 156° |
| 2026-04-20 20:03 | 37.95970 | -70.55713 | 37201 ft | 434 kts | 162° |
| 2026-04-20 20:03 | 37.90551 | -70.52364 | 37179 ft | 432 kts | 163° |
| 2026-04-20 20:04 | 37.85125 | -70.49037 | 37197 ft | 435 kts | 163° |
| 2026-04-20 20:04 | 37.79689 | -70.45662 | 37183 ft | 436 kts | 162° |
| 2026-04-20 20:05 | 37.74289 | -70.42290 | 37184 ft | 435 kts | 162° |
| 2026-04-20 20:05 | 37.68857 | -70.38889 | 37178 ft | 436 kts | 162° |
| 2026-04-20 20:06 | 37.63424 | -70.35494 | 37173 ft | 436 kts | 162° |
| 2026-04-20 20:06 | 37.58002 | -70.32113 | 37176 ft | 433 kts | 163° |
| 2026-04-20 20:07 | 37.52592 | -70.28756 | 37174 ft | 434 kts | 162° |
| 2026-04-20 20:07 | 37.47184 | -70.25389 | 37178 ft | 433 kts | 162° |
| 2026-04-20 20:08 | 37.41784 | -70.22037 | 37178 ft | 433 kts | 162° |
| 2026-04-20 20:08 | 37.36376 | -70.18690 | 37175 ft | 434 kts | 163° |
| 2026-04-20 20:09 | 37.30948 | -70.15339 | 37171 ft | 435 kts | 162° |
| 2026-04-20 20:09 | 37.25516 | -70.11980 | 37168 ft | 436 kts | 163° |
| 2026-04-20 20:10 | 37.20064 | -70.08617 | 37179 ft | 437 kts | 163° |
| 2026-04-20 20:10 | 37.14599 | -70.05256 | 37169 ft | 437 kts | 163° |
| 2026-04-20 20:11 | 37.09133 | -70.01898 | 37179 ft | 438 kts | 163° |
| 2026-04-20 20:11 | 37.03663 | -69.98543 | 37170 ft | 438 kts | 162° |
| 2026-04-20 20:12 | 36.98202 | -69.95207 | 37160 ft | 435 kts | 163° |
| 2026-04-20 20:12 | 36.92762 | -69.91878 | 37159 ft | 435 kts | 163° |
| 2026-04-20 20:13 | 36.84616 | -69.86885 | 37156 ft | 434 kts | 163° |
| 2026-04-20 20:13 | 36.79187 | -69.83590 | 37158 ft | 434 kts | 163° |
| 2026-04-20 20:14 | 36.73791 | -69.80319 | 37158 ft | 435 kts | 163° |
| 2026-04-20 20:14 | 36.68350 | -69.77018 | 37153 ft | 435 kts | 163° |
| 2026-04-20 20:15 | 36.62912 | -69.73719 | 37159 ft | 435 kts | 163° |
| 2026-04-20 20:15 | 36.57469 | -69.70423 | 37153 ft | 436 kts | 163° |
| 2026-04-20 20:16 | 36.52012 | -69.67128 | 37149 ft | 436 kts | 163° |
| 2026-04-20 20:16 | 36.46557 | -69.63835 | 37149 ft | 436 kts | 163° |
| 2026-04-20 20:17 | 36.41078 | -69.60540 | 37145 ft | 438 kts | 163° |
| 2026-04-20 20:17 | 36.35595 | -69.57246 | 37149 ft | 438 kts | 163° |
| 2026-04-20 20:18 | 36.30119 | -69.53958 | 37145 ft | 437 kts | 163° |
| 2026-04-20 20:18 | 36.24647 | -69.50674 | 37149 ft | 436 kts | 163° |
| 2026-04-20 20:19 | 36.19173 | -69.47398 | 37149 ft | 437 kts | 163° |
| 2026-04-20 20:19 | 36.13841 | -69.43606 | 37148 ft | 452 kts | 152° |
| 2026-04-20 20:20 | 36.08865 | -69.38819 | 37148 ft | 454 kts | 151° |
| 2026-04-20 20:20 | 36.03909 | -69.33983 | 37151 ft | 454 kts | 151° |
| 2026-04-20 20:21 | 35.98947 | -69.29198 | 37145 ft | 452 kts | 152° |
| 2026-04-20 20:21 | 35.93970 | -69.24451 | 37147 ft | 453 kts | 152° |
| 2026-04-20 20:22 | 35.88999 | -69.19722 | 37154 ft | 454 kts | 151° |
| 2026-04-20 20:22 | 35.83996 | -69.14972 | 37138 ft | 453 kts | 151° |
| 2026-04-20 20:23 | 35.78996 | -69.10233 | 37137 ft | 453 kts | 151° |
| 2026-04-20 20:23 | 35.74004 | -69.05507 | 37145 ft | 452 kts | 151° |
| 2026-04-20 20:24 | 35.69018 | -69.00793 | 37141 ft | 452 kts | 151° |
| 2026-04-20 20:24 | 35.64046 | -68.96101 | 37131 ft | 450 kts | 152° |
| 2026-04-20 20:25 | 35.59079 | -68.91420 | 37140 ft | 450 kts | 151° |
| 2026-04-20 20:25 | 35.54104 | -68.86736 | 37130 ft | 450 kts | 151° |
| 2026-04-20 20:26 | 35.49131 | -68.82068 | 37126 ft | 449 kts | 151° |
| 2026-04-20 20:26 | 35.44162 | -68.77405 | 37132 ft | 451 kts | 151° |
| 2026-04-20 20:27 | 35.39177 | -68.72749 | 37127 ft | 449 kts | 151° |
| 2026-04-20 20:27 | 35.34238 | -68.68136 | 37131 ft | 450 kts | 151° |
| 2026-04-20 20:28 | 35.29243 | -68.63474 | 37119 ft | 452 kts | 151° |
| 2026-04-20 20:28 | 35.24239 | -68.58795 | 37119 ft | 453 kts | 151° |
| 2026-04-20 20:29 | 35.19235 | -68.54138 | 37115 ft | 452 kts | 151° |
| 2026-04-20 20:29 | 35.14233 | -68.49486 | 37110 ft | 452 kts | 151° |
| 2026-04-20 20:30 | 35.09222 | -68.44842 | 37108 ft | 451 kts | 151° |
| 2026-04-20 20:30 | 35.04218 | -68.40212 | 37116 ft | 451 kts | 151° |
| 2026-04-20 20:31 | 34.99207 | -68.35577 | 37118 ft | 451 kts | 151° |
| 2026-04-20 20:31 | 34.94211 | -68.30962 | 37131 ft | 450 kts | 151° |
| 2026-04-20 20:32 | 34.89225 | -68.26370 | 37117 ft | 449 kts | 151° |
| 2026-04-20 20:32 | 34.85082 | -68.22560 | 37110 ft | 449 kts | 151° |
| 2026-04-20 20:33 | 34.80088 | -68.17971 | 37120 ft | 451 kts | 151° |
| 2026-04-20 20:33 | 34.75077 | -68.13369 | 37117 ft | 452 kts | 151° |
| 2026-04-20 20:34 | 34.70052 | -68.08766 | 37109 ft | 452 kts | 151° |
| 2026-04-20 20:34 | 34.65013 | -68.04171 | 37103 ft | 454 kts | 151° |
| 2026-04-20 20:35 | 34.59961 | -67.99544 | 37118 ft | 456 kts | 151° |
| 2026-04-20 20:35 | 34.54906 | -67.94931 | 37105 ft | 454 kts | 151° |
| 2026-04-20 20:36 | 34.49868 | -67.90345 | 37096 ft | 452 kts | 151° |
| 2026-04-20 20:36 | 34.44842 | -67.85776 | 37104 ft | 451 kts | 151° |
| 2026-04-20 20:37 | 34.39831 | -67.81224 | 37105 ft | 450 kts | 151° |
| 2026-04-20 20:37 | 34.34826 | -67.76697 | 37100 ft | 449 kts | 151° |
| 2026-04-20 20:38 | 34.29827 | -67.72175 | 37101 ft | 449 kts | 151° |
| 2026-04-20 20:38 | 34.24861 | -67.67683 | 37084 ft | 449 kts | 150° |
| 2026-04-20 20:39 | 34.19859 | -67.63169 | 37097 ft | 449 kts | 151° |
| 2026-04-20 20:39 | 34.14727 | -67.58934 | 37082 ft | 440 kts | 161° |
| 2026-04-20 20:40 | 34.09058 | -67.56632 | 37091 ft | 424 kts | 176° |
| 2026-04-20 20:40 | 34.03253 | -67.55422 | 37084 ft | 423 kts | 178° |
| 2026-04-20 20:41 | 33.97439 | -67.54235 | 37070 ft | 423 kts | 177° |
| 2026-04-20 20:41 | 33.91627 | -67.53007 | 37095 ft | 425 kts | 177° |
| 2026-04-20 20:42 | 33.85789 | -67.51758 | 37084 ft | 426 kts | 177° |
| 2026-04-20 20:42 | 33.79953 | -67.50509 | 37077 ft | 426 kts | 177° |
| 2026-04-20 20:43 | 33.74112 | -67.49257 | 37078 ft | 427 kts | 177° |
| 2026-04-20 20:43 | 33.68260 | -67.48004 | 37069 ft | 427 kts | 177° |
| 2026-04-20 20:44 | 33.62421 | -67.46759 | 37077 ft | 426 kts | 177° |
| 2026-04-20 20:44 | 33.56577 | -67.45511 | 37065 ft | 427 kts | 177° |
| 2026-04-20 20:45 | 33.50732 | -67.44263 | 37068 ft | 427 kts | 177° |
| 2026-04-20 20:45 | 33.44888 | -67.43014 | 37066 ft | 427 kts | 177° |
| 2026-04-20 20:46 | 33.39085 | -67.41788 | 37059 ft | 426 kts | 177° |
| 2026-04-20 20:46 | 33.33245 | -67.40555 | 37067 ft | 427 kts | 177° |
| 2026-04-20 20:47 | 33.27392 | -67.39318 | 37064 ft | 427 kts | 177° |
| 2026-04-20 20:47 | 33.21542 | -67.38073 | 37061 ft | 427 kts | 177° |
| 2026-04-20 20:48 | 33.15691 | -67.36839 | 37067 ft | 426 kts | 177° |
| 2026-04-20 20:48 | 33.09844 | -67.35603 | 37073 ft | 427 kts | 177° |
| 2026-04-20 20:49 | 33.03997 | -67.34373 | 37067 ft | 426 kts | 177° |
| 2026-04-20 20:49 | 32.98158 | -67.33146 | 37065 ft | 427 kts | 177° |